首页
METAR-TAF:

METAR-TAF

机场 :

施韦比施哈尔, 德国

纬度: 49-07-06N, 经度: 9-47-02E, 海拔: 398米

当前天气观测

该预报发布于20分钟前的18:50 UTC
风速6节,风向西南
温度 6°C
湿度 65%
气压 1025 hPa
能见度10公里或以上
多云层高于4400英尺
阴天层高于5700英尺

METAR: EDTY 181850Z 22006KT 9999 BKN044 OVC057 06/M00 Q1025

时间: 20:10 (19:10 UTC)

预报

该预报发布于2小时和10分钟前的17:00 UTC
预报有效从18日的 18点(UTC)到 19日的 03点(UTC)
风速7节,风向西转西南
能见度10公里或以上
1500米以下无云,无积雨云

TAF: EDTY 181700Z 1818/1903 24007KT CAVOK

超过4000个机场的气象观测和天气预报(METAR&TAF报告)。

可查询的气象台以黄色和红色小点在地图上表示。

将鼠标移到小点上方,可查看气象台名称。

然后点击查看天气观测和预报。

如需切换地图:点击带黑十字的绿色按钮放大地图;点击带横线的绿色按钮缩小地图;或者点击绿色箭头查看邻近地区的地图。


METAR-TAF: